Piper Inness — WDC3984 — position and weather

sailwx.info

Track history (hours):
 
Tides and Currents Weather Stations Pressure Air Temp Water Temp Dewpoint Dewpoint Depression Visibility Wind Speed Wind Dir Waves Ship Positions

Piper Inness

Owner: Foss Maritime Co, Seattle, WA. More information available from US FCC via Universal Licensing System and Coast Guard Vessel Documentation Center.

Last reported at 2016-May-29 20:20 UTC. Time now 2016-May-29 21:13 UTC.
Position N 33°46' W 118°13'.

; draft 2 m.

Type: Other ship. MMSI: 367017440.

Date/timePositionNaut miles runAvg speedWind from/ knotsBaromVisibWave heightAir tempDewpointWater temp
2016-May-29 20:20N 33°46' W 118°13'0 0.0
2016-May-29 19:33N 33°46' W 118°13'0 0.0
2016-May-29 18:33N 33°46' W 118°13'0 0.0
2016-May-29 17:33N 33°46' W 118°13'0 0.0
2016-May-29 16:33N 33°46' W 118°13'0 0.0
2016-May-29 15:33N 33°46' W 118°13'0 0.0
2016-May-29 14:33N 33°46' W 118°13'0 0.0
2016-May-29 13:33N 33°46' W 118°13'0 0.0
2016-May-29 12:33N 33°46' W 118°13'0 0.0
2016-May-29 11:33N 33°46' W 118°13'0 0.0
2016-May-29 10:33N 33°46' W 118°13'0 0.0
2016-May-29 09:33N 33°46' W 118°13'0 0.0
2016-May-29 08:33N 33°46' W 118°13'0 0.0
2016-May-29 07:33N 33°46' W 118°13'0 0.0
2016-May-29 06:33N 33°46' W 118°13'0 0.0
2016-May-29 05:33N 33°46' W 118°13'0 0.0
2016-May-29 04:33N 33°46' W 118°13'0 0.0
2016-May-29 03:33N 33°46' W 118°13'0 0.0
2016-May-29 02:33N 33°46' W 118°13'0 0.0
2016-May-29 01:33N 33°46' W 118°13'0 0.0
2016-May-29 00:33N 33°46' W 118°13'0 0.0
2016-May-28 23:33N 33°46' W 118°13'0 0.0
2016-May-28 22:33N 33°46' W 118°13'0 0.0
2016-May-28 21:33N 33°46' W 118°13'0 0.0
2016-May-28 20:33N 33°46' W 118°13'0 0.0
2016-May-28 19:33N 33°46' W 118°13'0 0.0
2016-May-28 18:33N 33°46' W 118°13'0 0.0
2016-May-28 17:33N 33°46' W 118°13'0 0.0
2016-May-28 16:33N 33°46' W 118°13'0 0.0
2016-May-28 15:33N 33°46' W 118°13'0 0.0
2016-May-28 14:32N 33°46' W 118°13'0 0.0
2016-May-28 13:34N 33°46' W 118°13'0 0.0
2016-May-28 12:33N 33°46' W 118°13'0 0.0
2016-May-28 10:14N 33°46' W 118°13'0 0.0
2016-May-28 09:32N 33°46' W 118°13'0 0.0
2016-May-28 08:29N 33°46' W 118°13'0 0.0
2016-May-28 07:22N 33°46' W 118°13'0 0.0
2016-May-28 05:23N 33°46' W 118°13'0 0.0
2016-May-28 03:15N 33°46' W 118°13'0 0.0
2016-May-28 02:33N 33°46' W 118°13'0 0.0
2016-May-28 01:32N 33°46' W 118°13'0 0.0
2016-May-28 00:32N 33°46' W 118°13'0 0.0
2016-May-27 23:33N 33°46' W 118°13'0 0.0
2016-May-27 22:27N 33°46' W 118°13'0 0.0
2016-May-27 21:18N 33°46' W 118°13'0 0.0
2016-May-27 20:24N 33°46' W 118°13'0 0.0
2016-May-27 19:30N 33°46' W 118°13'0 0.0
2016-May-27 16:22N 33°46' W 118°13'0 0.0
2016-May-27 15:21N 33°46' W 118°13'0 0.0
2016-May-27 13:29N 33°46' W 118°13'0 0.0
2016-May-27 12:26N 33°46' W 118°13'0 0.0
2016-May-27 11:17N 33°46' W 118°13'0 0.0
2016-May-27 10:20N 33°46' W 118°13'0 0.0
2016-May-27 09:26N 33°46' W 118°13'0 0.0
2016-May-27 08:29N 33°46' W 118°13'2 2.2
2016-May-27 07:29N 33°44' W 118°12'1916.4
2016-May-27 06:19N 33°28' W 118°00'1317.2
2016-May-27 05:33N 33°16' W 117°53'2 1.6
2016-May-27 04:34N 33°15' W 117°52'9 9.0
2016-May-27 03:33N 33°06' W 117°51'1 0.7
2016-May-27 02:33N 33°06' W 117°52'1 0.7
2016-May-27 01:33N 33°05' W 117°51'3 2.7
2016-May-27 00:34N 33°05' W 117°48'1 0.9
2016-May-26 23:33N 33°04' W 117°49'2 2.0
2016-May-26 22:33N 33°04' W 117°47'1 0.5
2016-May-26 21:33N 33°03' W 117°47'1 1.5
2016-May-26 20:33N 33°02' W 117°46'1 1.3
2016-May-26 19:33N 33°01' W 117°45'2 2.0
2016-May-26 18:33N 32°60' W 117°43'2 2.4
2016-May-26 17:33N 33°01' W 117°46'2 2.5
2016-May-26 16:33N 32°59' W 117°43'1 1.0
2016-May-26 15:33N 32°58' W 117°43'1 0.7
2016-May-26 14:33N 32°57' W 117°43'3 2.8
2016-May-26 13:33N 32°56' W 117°41'1 0.9
2016-May-26 12:33N 32°55' W 117°42'1 0.9
2016-May-26 11:33N 32°55' W 117°43'2 1.8
2016-May-26 10:33N 32°55' W 117°45'1 1.1
2016-May-26 09:33N 32°55' W 117°44'3 2.7
2016-May-26 08:33N 32°55' W 117°47'1 0.8
2016-May-26 07:33N 32°55' W 117°46'2 1.7
2016-May-26 06:34N 32°53' W 117°46'3 3.2
2016-May-26 05:33N 32°55' W 117°49'2 2.1
2016-May-26 04:33N 32°57' W 117°48'4 4.0
2016-May-26 03:33N 33°00' W 117°50'5 4.8
2016-May-26 02:27N 33°05' W 117°54'3 2.9
2016-May-26 01:32N 33°07' W 117°54'5 5.5
2016-May-26 00:32N 33°11' W 117°59'3517.0
2016-May-25 22:28N 33°44' W 118°12'2 1.0
2016-May-25 20:27N 33°46' W 118°13'0 0.0
2016-May-25 19:33N 33°46' W 118°13'0 0.0
2016-May-25 18:33N 33°46' W 118°13'0 0.0
2016-May-25 17:33N 33°46' W 118°13'0 0.0
2016-May-25 16:33N 33°46' W 118°13'0 0.0
2016-May-25 15:30N 33°46' W 118°13'0 0.0
2016-May-25 14:33N 33°46' W 118°13'0 0.0
2016-May-25 13:33N 33°46' W 118°13'0 0.0
2016-May-25 12:33N 33°46' W 118°13'0 0.0
2016-May-25 11:33N 33°46' W 118°13'0 0.0
2016-May-25 10:33N 33°46' W 118°13'0 0.0
2016-May-25 09:33N 33°46' W 118°13'0 0.0
2016-May-25 08:33N 33°46' W 118°13'0 0.0
2016-May-25 07:33N 33°46' W 118°13'0 0.0
2016-May-25 06:33N 33°46' W 118°13'0 0.0
2016-May-25 05:33N 33°46' W 118°13'2914.4
2016-May-25 03:33N 33°21' W 117°57'1615.9
2016-May-25 02:33N 33°06' W 117°49'1 1.4
2016-May-25 01:33N 33°05' W 117°48'1 1.0
2016-May-25 00:33N 33°06' W 117°49'0 0.4
2016-May-24 23:33N 33°05' W 117°49'1 0.7
2016-May-24 22:31N 33°05' W 117°48'1 1.5
2016-May-24 21:33N 33°04' W 117°47'1 1.0
2016-May-24 20:33N 33°04' W 117°48'3 3.0
2016-May-24 19:33N 33°02' W 117°46'1 1.1
2016-May-24 18:33N 33°01' W 117°46'1 0.8
2016-May-24 17:34N 33°01' W 117°45'3 3.2
2016-May-24 16:33N 32°59' W 117°48'2 1.6
2016-May-24 15:33N 32°58' W 117°46'3 2.8
2016-May-24 14:33N 32°57' W 117°43'2 1.8
2016-May-24 13:33N 32°57' W 117°45'0 0.5
2016-May-24 12:33N 32°57' W 117°46'2 2.1
2016-May-24 11:34N 32°57' W 117°48'0 0.2
2016-May-24 10:33N 32°57' W 117°48'2 2.5
2016-May-24 09:33N 32°59' W 117°51'0 0.2
2016-May-24 08:33N 32°59' W 117°50'1 0.9
2016-May-24 07:33N 32°58' W 117°50'2 2.5
2016-May-24 06:33N 33°00' W 117°51'3 3.4
2016-May-24 05:33N 33°03' W 117°53'4 3.9
2016-May-24 04:33N 33°07' W 117°55'3 2.5
2016-May-24 03:23N 33°10' W 117°54'1 0.8
2016-May-24 02:33N 33°10' W 117°55'9 8.7
2016-May-24 01:32N 33°18' W 117°59'  
2016-May-20 17:30N 33°46' W 118°13'0 0.0
2016-May-20 16:33N 33°46' W 118°13'0 0.0
2016-May-20 15:34N 33°46' W 118°13'0 0.0
2016-May-20 14:34N 33°46' W 118°13'0 0.0
2016-May-20 13:34N 33°46' W 118°13'0 0.0
2016-May-20 12:33N 33°46' W 118°13'0 0.0
2016-May-20 11:34N 33°46' W 118°13'0 0.0
2016-May-20 10:34N 33°46' W 118°13'0 0.0
2016-May-20 09:33N 33°46' W 118°13'0 0.0
2016-May-20 08:33N 33°46' W 118°13'0 0.0
2016-May-20 07:34N 33°46' W 118°13'0 0.0
2016-May-20 06:34N 33°46' W 118°13'0 0.0
2016-May-20 05:34N 33°46' W 118°13'0 0.0
2016-May-20 04:33N 33°46' W 118°13'0 0.0
2016-May-20 03:33N 33°46' W 118°13'0 0.0
2016-May-20 02:34N 33°46' W 118°13'0 0.0
2016-May-20 01:33N 33°46' W 118°13'0 0.0
2016-May-20 00:34N 33°46' W 118°13'0 0.0
2016-May-19 23:33N 33°46' W 118°13'0 0.0
2016-May-19 22:34N 33°46' W 118°13'0 0.0
2016-May-19 21:34N 33°46' W 118°13'0 0.0
2016-May-19 20:33N 33°46' W 118°13'  
Track history (hours):
 
Tides and Currents Weather Stations Pressure Air Temp Water Temp Dewpoint Dewpoint Depression Visibility Wind Speed Wind Dir Waves Ship Positions

Piper Inness

Owner: Foss Maritime Co, Seattle, WA. More information available from US FCC via Universal Licensing System and Coast Guard Vessel Documentation Center.

Last reported at 2016-May-29 20:20 UTC. Time now 2016-May-29 21:13 UTC.
Position N 33°46' W 118°13'.

; draft 2 m.

Type: Other ship. MMSI: 367017440.

Date/timePositionNaut miles runAvg speedWind from/ knotsBaromVisibWave heightAir tempDewpointWater temp
2016-May-29 20:20N 33°46' W 118°13'0 0.0
2016-May-29 19:33N 33°46' W 118°13'0 0.0
2016-May-29 18:33N 33°46' W 118°13'0 0.0
2016-May-29 17:33N 33°46' W 118°13'0 0.0
2016-May-29 16:33N 33°46' W 118°13'0 0.0
2016-May-29 15:33N 33°46' W 118°13'0 0.0
2016-May-29 14:33N 33°46' W 118°13'0 0.0
2016-May-29 13:33N 33°46' W 118°13'0 0.0
2016-May-29 12:33N 33°46' W 118°13'0 0.0
2016-May-29 11:33N 33°46' W 118°13'0 0.0
2016-May-29 10:33N 33°46' W 118°13'0 0.0
2016-May-29 09:33N 33°46' W 118°13'0 0.0
2016-May-29 08:33N 33°46' W 118°13'0 0.0
2016-May-29 07:33N 33°46' W 118°13'0 0.0
2016-May-29 06:33N 33°46' W 118°13'0 0.0
2016-May-29 05:33N 33°46' W 118°13'0 0.0
2016-May-29 04:33N 33°46' W 118°13'0 0.0
2016-May-29 03:33N 33°46' W 118°13'0 0.0
2016-May-29 02:33N 33°46' W 118°13'0 0.0
2016-May-29 01:33N 33°46' W 118°13'0 0.0
2016-May-29 00:33N 33°46' W 118°13'0 0.0
2016-May-28 23:33N 33°46' W 118°13'0 0.0
2016-May-28 22:33N 33°46' W 118°13'0 0.0
2016-May-28 21:33N 33°46' W 118°13'0 0.0
2016-May-28 20:33N 33°46' W 118°13'0 0.0
2016-May-28 19:33N 33°46' W 118°13'0 0.0
2016-May-28 18:33N 33°46' W 118°13'0 0.0
2016-May-28 17:33N 33°46' W 118°13'0 0.0
2016-May-28 16:33N 33°46' W 118°13'0 0.0
2016-May-28 15:33N 33°46' W 118°13'0 0.0
2016-May-28 14:32N 33°46' W 118°13'0 0.0
2016-May-28 13:34N 33°46' W 118°13'0 0.0
2016-May-28 12:33N 33°46' W 118°13'0 0.0
2016-May-28 10:14N 33°46' W 118°13'0 0.0
2016-May-28 09:32N 33°46' W 118°13'0 0.0
2016-May-28 08:29N 33°46' W 118°13'0 0.0
2016-May-28 07:22N 33°46' W 118°13'0 0.0
2016-May-28 05:23N 33°46' W 118°13'0 0.0
2016-May-28 03:15N 33°46' W 118°13'0 0.0
2016-May-28 02:33N 33°46' W 118°13'0 0.0
2016-May-28 01:32N 33°46' W 118°13'0 0.0
2016-May-28 00:32N 33°46' W 118°13'0 0.0
2016-May-27 23:33N 33°46' W 118°13'0 0.0
2016-May-27 22:27N 33°46' W 118°13'0 0.0
2016-May-27 21:18N 33°46' W 118°13'0 0.0
2016-May-27 20:24N 33°46' W 118°13'0 0.0
2016-May-27 19:30N 33°46' W 118°13'0 0.0
2016-May-27 16:22N 33°46' W 118°13'0 0.0
2016-May-27 15:21N 33°46' W 118°13'0 0.0
2016-May-27 13:29N 33°46' W 118°13'0 0.0
2016-May-27 12:26N 33°46' W 118°13'0 0.0
2016-May-27 11:17N 33°46' W 118°13'0 0.0
2016-May-27 10:20N 33°46' W 118°13'0 0.0
2016-May-27 09:26N 33°46' W 118°13'0 0.0
2016-May-27 08:29N 33°46' W 118°13'2 2.2
2016-May-27 07:29N 33°44' W 118°12'1916.4
2016-May-27 06:19N 33°28' W 118°00'1317.2
2016-May-27 05:33N 33°16' W 117°53'2 1.6
2016-May-27 04:34N 33°15' W 117°52'9 9.0
2016-May-27 03:33N 33°06' W 117°51'1 0.7
2016-May-27 02:33N 33°06' W 117°52'1 0.7
2016-May-27 01:33N 33°05' W 117°51'3 2.7
2016-May-27 00:34N 33°05' W 117°48'1 0.9
2016-May-26 23:33N 33°04' W 117°49'2 2.0
2016-May-26 22:33N 33°04' W 117°47'1 0.5
2016-May-26 21:33N 33°03' W 117°47'1 1.5
2016-May-26 20:33N 33°02' W 117°46'1 1.3
2016-May-26 19:33N 33°01' W 117°45'2 2.0
2016-May-26 18:33N 32°60' W 117°43'2 2.4
2016-May-26 17:33N 33°01' W 117°46'2 2.5
2016-May-26 16:33N 32°59' W 117°43'1 1.0
2016-May-26 15:33N 32°58' W 117°43'1 0.7
2016-May-26 14:33N 32°57' W 117°43'3 2.8
2016-May-26 13:33N 32°56' W 117°41'1 0.9
2016-May-26 12:33N 32°55' W 117°42'1 0.9
2016-May-26 11:33N 32°55' W 117°43'2 1.8
2016-May-26 10:33N 32°55' W 117°45'1 1.1
2016-May-26 09:33N 32°55' W 117°44'3 2.7
2016-May-26 08:33N 32°55' W 117°47'1 0.8
2016-May-26 07:33N 32°55' W 117°46'2 1.7
2016-May-26 06:34N 32°53' W 117°46'3 3.2
2016-May-26 05:33N 32°55' W 117°49'2 2.1
2016-May-26 04:33N 32°57' W 117°48'4 4.0
2016-May-26 03:33N 33°00' W 117°50'5 4.8
2016-May-26 02:27N 33°05' W 117°54'3 2.9
2016-May-26 01:32N 33°07' W 117°54'5 5.5
2016-May-26 00:32N 33°11' W 117°59'3517.0
2016-May-25 22:28N 33°44' W 118°12'2 1.0
2016-May-25 20:27N 33°46' W 118°13'0 0.0
2016-May-25 19:33N 33°46' W 118°13'0 0.0
2016-May-25 18:33N 33°46' W 118°13'0 0.0
2016-May-25 17:33N 33°46' W 118°13'0 0.0
2016-May-25 16:33N 33°46' W 118°13'0 0.0
2016-May-25 15:30N 33°46' W 118°13'0 0.0
2016-May-25 14:33N 33°46' W 118°13'0 0.0
2016-May-25 13:33N 33°46' W 118°13'0 0.0
2016-May-25 12:33N 33°46' W 118°13'0 0.0
2016-May-25 11:33N 33°46' W 118°13'0 0.0
2016-May-25 10:33N 33°46' W 118°13'0 0.0
2016-May-25 09:33N 33°46' W 118°13'0 0.0
2016-May-25 08:33N 33°46' W 118°13'0 0.0
2016-May-25 07:33N 33°46' W 118°13'0 0.0
2016-May-25 06:33N 33°46' W 118°13'0 0.0
2016-May-25 05:33N 33°46' W 118°13'2914.4
2016-May-25 03:33N 33°21' W 117°57'1615.9
2016-May-25 02:33N 33°06' W 117°49'1 1.4
2016-May-25 01:33N 33°05' W 117°48'1 1.0
2016-May-25 00:33N 33°06' W 117°49'0 0.4
2016-May-24 23:33N 33°05' W 117°49'1 0.7
2016-May-24 22:31N 33°05' W 117°48'1 1.5
2016-May-24 21:33N 33°04' W 117°47'1 1.0
2016-May-24 20:33N 33°04' W 117°48'3 3.0
2016-May-24 19:33N 33°02' W 117°46'1 1.1
2016-May-24 18:33N 33°01' W 117°46'1 0.8
2016-May-24 17:34N 33°01' W 117°45'3 3.2
2016-May-24 16:33N 32°59' W 117°48'2 1.6
2016-May-24 15:33N 32°58' W 117°46'3 2.8
2016-May-24 14:33N 32°57' W 117°43'2 1.8
2016-May-24 13:33N 32°57' W 117°45'0 0.5
2016-May-24 12:33N 32°57' W 117°46'2 2.1
2016-May-24 11:34N 32°57' W 117°48'0 0.2
2016-May-24 10:33N 32°57' W 117°48'2 2.5
2016-May-24 09:33N 32°59' W 117°51'0 0.2
2016-May-24 08:33N 32°59' W 117°50'1 0.9
2016-May-24 07:33N 32°58' W 117°50'2 2.5
2016-May-24 06:33N 33°00' W 117°51'3 3.4
2016-May-24 05:33N 33°03' W 117°53'4 3.9
2016-May-24 04:33N 33°07' W 117°55'3 2.5
2016-May-24 03:23N 33°10' W 117°54'1 0.8
2016-May-24 02:33N 33°10' W 117°55'9 8.7
2016-May-24 01:32N 33°18' W 117°59'  
2016-May-20 17:30N 33°46' W 118°13'0 0.0
2016-May-20 16:33N 33°46' W 118°13'0 0.0
2016-May-20 15:34N 33°46' W 118°13'0 0.0
2016-May-20 14:34N 33°46' W 118°13'0 0.0
2016-May-20 13:34N 33°46' W 118°13'0 0.0
2016-May-20 12:33N 33°46' W 118°13'0 0.0
2016-May-20 11:34N 33°46' W 118°13'0 0.0
2016-May-20 10:34N 33°46' W 118°13'0 0.0
2016-May-20 09:33N 33°46' W 118°13'0 0.0
2016-May-20 08:33N 33°46' W 118°13'0 0.0
2016-May-20 07:34N 33°46' W 118°13'0 0.0
2016-May-20 06:34N 33°46' W 118°13'0 0.0
2016-May-20 05:34N 33°46' W 118°13'0 0.0
2016-May-20 04:33N 33°46' W 118°13'0 0.0
2016-May-20 03:33N 33°46' W 118°13'0 0.0
2016-May-20 02:34N 33°46' W 118°13'0 0.0
2016-May-20 01:33N 33°46' W 118°13'0 0.0
2016-May-20 00:34N 33°46' W 118°13'0 0.0
2016-May-19 23:33N 33°46' W 118°13'0 0.0
2016-May-19 22:34N 33°46' W 118°13'0 0.0
2016-May-19 21:34N 33°46' W 118°13'0 0.0
2016-May-19 20:33N 33°46' W 118°13'  

Dump ship's entire track history